sensor_id;sensor_type;location;lat;lon;timestamp;pressure;altitude;pressure_sealevel;temperature;humidity
3142;BME280;1581;51.568;6.998;2022-09-30T00:01:27;100078.88;;;9.48;100.00
3142;BME280;1581;51.568;6.998;2022-09-30T00:03:55;100085.59;;;9.44;100.00
3142;BME280;1581;51.568;6.998;2022-09-30T00:06:26;100085.59;;;9.38;100.00
3142;BME280;1581;51.568;6.998;2022-09-30T00:08:55;100096.38;;;9.30;100.00
3142;BME280;1581;51.568;6.998;2022-09-30T00:11:27;100088.97;;;9.25;100.00
3142;BME280;1581;51.568;6.998;2022-09-30T00:13:56;100099.06;;;9.36;100.00
3142;BME280;1581;51.568;6.998;2022-09-30T00:16:26;100093.31;;;9.33;100.00
3142;BME280;1581;51.568;6.998;2022-09-30T00:18:55;100102.53;;;9.30;100.00
3142;BME280;1581;51.568;6.998;2022-09-30T00:21:25;100107.00;;;9.30;100.00
3142;BME280;1581;51.568;6.998;2022-09-30T00:23:54;100101.25;;;9.26;100.00
3142;BME280;1581;51.568;6.998;2022-09-30T00:26:23;100103.31;;;9.31;100.00
3142;BME280;1581;51.568;6.998;2022-09-30T00:28:53;100111.00;;;9.13;100.00
3142;BME280;1581;51.568;6.998;2022-09-30T00:31:22;100100.59;;;9.18;100.00
3142;BME280;1581;51.568;6.998;2022-09-30T00:33:51;100106.34;;;9.21;100.00
3142;BME280;1581;51.568;6.998;2022-09-30T00:36:47;100104.88;;;9.19;100.00
3142;BME280;1581;51.568;6.998;2022-09-30T00:39:19;100106.50;;;9.13;100.00
3142;BME280;1581;51.568;6.998;2022-09-30T00:41:50;100110.59;;;9.16;100.00
3142;BME280;1581;51.568;6.998;2022-09-30T00:44:52;100102.00;;;9.14;100.00
3142;BME280;1581;51.568;6.998;2022-09-30T00:47:45;100101.78;;;9.15;100.00
3142;BME280;1581;51.568;6.998;2022-09-30T00:50:32;100105.47;;;9.14;100.00
3142;BME280;1581;51.568;6.998;2022-09-30T00:53:12;100105.44;;;9.08;100.00
3142;BME280;1581;51.568;6.998;2022-09-30T00:55:53;100103.59;;;9.08;100.00
3142;BME280;1581;51.568;6.998;2022-09-30T00:58:27;100107.41;;;8.99;100.00
3142;BME280;1581;51.568;6.998;2022-09-30T01:00:57;100112.47;;;8.94;100.00
3142;BME280;1581;51.568;6.998;2022-09-30T01:03:29;100105.56;;;8.93;100.00
3142;BME280;1581;51.568;6.998;2022-09-30T01:05:57;100102.63;;;8.88;100.00
3142;BME280;1581;51.568;6.998;2022-09-30T01:08:27;100107.53;;;8.85;100.00
3142;BME280;1581;51.568;6.998;2022-09-30T01:10:57;100106.94;;;8.89;100.00
3142;BME280;1581;51.568;6.998;2022-09-30T01:13:25;100104.59;;;8.80;100.00
3142;BME280;1581;51.568;6.998;2022-09-30T01:16:16;100108.09;;;8.80;100.00
3142;BME280;1581;51.568;6.998;2022-09-30T01:19:03;100101.09;;;8.73;100.00
3142;BME280;1581;51.568;6.998;2022-09-30T01:22:19;100111.28;;;8.69;100.00
3142;BME280;1581;51.568;6.998;2022-09-30T01:25:20;100117.28;;;8.78;100.00
3142;BME280;1581;51.568;6.998;2022-09-30T01:31:29;100115.06;;;8.81;100.00
3142;BME280;1581;51.568;6.998;2022-09-30T01:34:13;100116.13;;;8.87;100.00
3142;BME280;1581;51.568;6.998;2022-09-30T01:36:56;100110.34;;;8.83;100.00
3142;BME280;1581;51.568;6.998;2022-09-30T01:39:38;100116.66;;;8.76;100.00
3142;BME280;1581;51.568;6.998;2022-09-30T01:42:15;100108.69;;;8.76;100.00
3142;BME280;1581;51.568;6.998;2022-09-30T01:44:53;100115.38;;;8.72;100.00
3142;BME280;1581;51.568;6.998;2022-09-30T01:47:33;100106.97;;;8.68;100.00
3142;BME280;1581;51.568;6.998;2022-09-30T01:50:08;100113.66;;;8.64;100.00
3142;BME280;1581;51.568;6.998;2022-09-30T01:52:40;100111.00;;;8.64;100.00
3142;BME280;1581;51.568;6.998;2022-09-30T01:55:17;100121.41;;;8.59;100.00
3142;BME280;1581;51.568;6.998;2022-09-30T01:57:55;100114.06;;;8.61;100.00
3142;BME280;1581;51.568;6.998;2022-09-30T02:00:24;100121.91;;;8.69;100.00
3142;BME280;1581;51.568;6.998;2022-09-30T02:02:57;100123.09;;;8.67;100.00
3142;BME280;1581;51.568;6.998;2022-09-30T02:05:32;100122.63;;;8.57;100.00
3142;BME280;1581;51.568;6.998;2022-09-30T02:08:07;100119.38;;;8.61;100.00
3142;BME280;1581;51.568;6.998;2022-09-30T02:10:43;100112.44;;;8.60;100.00
3142;BME280;1581;51.568;6.998;2022-09-30T02:13:17;100113.38;;;8.53;100.00
3142;BME280;1581;51.568;6.998;2022-09-30T02:15:53;100112.44;;;8.60;100.00
3142;BME280;1581;51.568;6.998;2022-09-30T02:18:30;100117.47;;;8.55;100.00
3142;BME280;1581;51.568;6.998;2022-09-30T02:21:04;100109.72;;;8.54;100.00
3142;BME280;1581;51.568;6.998;2022-09-30T02:23:37;100114.38;;;8.52;100.00
3142;BME280;1581;51.568;6.998;2022-09-30T02:26:12;100111.78;;;8.58;100.00
3142;BME280;1581;51.568;6.998;2022-09-30T02:28:45;100109.44;;;8.49;100.00
3142;BME280;1581;51.568;6.998;2022-09-30T02:31:15;100115.03;;;8.54;100.00
3142;BME280;1581;51.568;6.998;2022-09-30T02:33:49;100110.50;;;8.54;100.00
3142;BME280;1581;51.568;6.998;2022-09-30T02:36:23;100116.53;;;8.42;100.00
3142;BME280;1581;51.568;6.998;2022-09-30T02:38:58;100115.72;;;8.42;100.00
3142;BME280;1581;51.568;6.998;2022-09-30T02:41:31;100123.50;;;8.43;100.00
3142;BME280;1581;51.568;6.998;2022-09-30T02:44:01;100125.06;;;8.38;100.00
3142;BME280;1581;51.568;6.998;2022-09-30T02:46:40;100120.69;;;8.30;100.00
3142;BME280;1581;51.568;6.998;2022-09-30T02:49:19;100134.72;;;8.24;100.00
3142;BME280;1581;51.568;6.998;2022-09-30T02:52:05;100129.63;;;8.23;100.00
3142;BME280;1581;51.568;6.998;2022-09-30T02:54:40;100135.31;;;8.41;100.00
3142;BME280;1581;51.568;6.998;2022-09-30T02:57:18;100132.22;;;8.37;100.00
3142;BME280;1581;51.568;6.998;2022-09-30T02:59:50;100136.25;;;8.33;100.00
3142;BME280;1581;51.568;6.998;2022-09-30T03:02:20;100132.28;;;8.23;100.00
3142;BME280;1581;51.568;6.998;2022-09-30T03:04:49;100136.53;;;8.24;100.00
3142;BME280;1581;51.568;6.998;2022-09-30T03:07:17;100137.63;;;8.29;100.00
3142;BME280;1581;51.568;6.998;2022-09-30T03:09:45;100131.88;;;8.26;100.00
3142;BME280;1581;51.568;6.998;2022-09-30T03:12:22;100136.19;;;8.27;100.00
3142;BME280;1581;51.568;6.998;2022-09-30T03:15:25;100144.13;;;8.27;100.00
3142;BME280;1581;51.568;6.998;2022-09-30T03:18:36;100147.00;;;8.25;100.00
3142;BME280;1581;51.568;6.998;2022-09-30T03:21:20;100137.94;;;8.20;100.00
3142;BME280;1581;51.568;6.998;2022-09-30T03:24:34;100138.97;;;8.19;100.00
3142;BME280;1581;51.568;6.998;2022-09-30T03:27:14;100144.91;;;8.21;100.00
3142;BME280;1581;51.568;6.998;2022-09-30T03:29:53;100142.81;;;8.16;100.00
3142;BME280;1581;51.568;6.998;2022-09-30T03:32:38;100143.34;;;8.12;100.00
3142;BME280;1581;51.568;6.998;2022-09-30T03:35:17;100156.16;;;8.08;100.00
3142;BME280;1581;51.568;6.998;2022-09-30T03:37:55;100162.72;;;8.12;100.00
3142;BME280;1581;51.568;6.998;2022-09-30T03:40:33;100154.69;;;8.06;100.00
3142;BME280;1581;51.568;6.998;2022-09-30T03:43:09;100151.59;;;8.17;100.00
3142;BME280;1581;51.568;6.998;2022-09-30T03:45:44;100155.53;;;8.21;100.00
3142;BME280;1581;51.568;6.998;2022-09-30T03:48:13;100163.28;;;8.08;100.00
3142;BME280;1581;51.568;6.998;2022-09-30T03:50:42;100166.59;;;8.10;100.00
3142;BME280;1581;51.568;6.998;2022-09-30T03:53:12;100162.19;;;8.17;100.00
3142;BME280;1581;51.568;6.998;2022-09-30T03:55:48;100172.34;;;8.13;100.00
3142;BME280;1581;51.568;6.998;2022-09-30T03:58:16;100178.22;;;8.09;100.00
3142;BME280;1581;51.568;6.998;2022-09-30T04:00:48;100172.13;;;8.15;100.00
3142;BME280;1581;51.568;6.998;2022-09-30T04:03:17;100170.88;;;8.11;100.00
3142;BME280;1581;51.568;6.998;2022-09-30T04:05:45;100181.06;;;8.07;100.00
3142;BME280;1581;51.568;6.998;2022-09-30T04:08:15;100175.47;;;8.02;100.00
3142;BME280;1581;51.568;6.998;2022-09-30T04:10:43;100179.41;;;8.06;100.00
3142;BME280;1581;51.568;6.998;2022-09-30T04:13:11;100186.81;;;8.11;100.00
3142;BME280;1581;51.568;6.998;2022-09-30T04:15:39;100189.94;;;8.00;100.00
3142;BME280;1581;51.568;6.998;2022-09-30T04:18:07;100195.69;;;8.03;100.00
3142;BME280;1581;51.568;6.998;2022-09-30T04:20:36;100191.75;;;7.99;100.00
3142;BME280;1581;51.568;6.998;2022-09-30T04:23:04;100201.00;;;8.03;100.00
3142;BME280;1581;51.568;6.998;2022-09-30T04:25:33;100200.91;;;7.97;100.00
3142;BME280;1581;51.568;6.998;2022-09-30T04:28:01;100205.41;;;7.96;100.00
3142;BME280;1581;51.568;6.998;2022-09-30T04:30:29;100194.72;;;7.90;100.00
3142;BME280;1581;51.568;6.998;2022-09-30T04:32:56;100201.28;;;7.94;100.00
3142;BME280;1581;51.568;6.998;2022-09-30T04:35:24;100203.09;;;8.08;100.00
3142;BME280;1581;51.568;6.998;2022-09-30T04:37:53;100206.38;;;8.10;100.00
3142;BME280;1581;51.568;6.998;2022-09-30T04:40:21;100210.03;;;8.09;100.00
3142;BME280;1581;51.568;6.998;2022-09-30T04:42:50;100201.44;;;8.07;100.00
3142;BME280;1581;51.568;6.998;2022-09-30T04:45:18;100207.41;;;8.09;100.00
3142;BME280;1581;51.568;6.998;2022-09-30T04:47:52;100204.00;;;8.00;100.00
3142;BME280;1581;51.568;6.998;2022-09-30T04:50:20;100204.97;;;7.93;100.00
3142;BME280;1581;51.568;6.998;2022-09-30T04:52:58;100209.63;;;7.91;100.00
3142;BME280;1581;51.568;6.998;2022-09-30T04:55:27;100216.56;;;7.92;100.00
3142;BME280;1581;51.568;6.998;2022-09-30T04:57:56;100225.63;;;7.83;100.00
3142;BME280;1581;51.568;6.998;2022-09-30T05:00:23;100219.13;;;7.85;100.00
3142;BME280;1581;51.568;6.998;2022-09-30T05:02:51;100231.00;;;7.89;100.00
3142;BME280;1581;51.568;6.998;2022-09-30T05:05:19;100232.84;;;7.89;100.00
3142;BME280;1581;51.568;6.998;2022-09-30T05:07:46;100235.84;;;7.86;100.00
3142;BME280;1581;51.568;6.998;2022-09-30T05:10:14;100235.03;;;7.85;100.00
3142;BME280;1581;51.568;6.998;2022-09-30T05:12:42;100243.16;;;7.84;100.00
3142;BME280;1581;51.568;6.998;2022-09-30T05:15:11;100229.75;;;7.85;100.00
3142;BME280;1581;51.568;6.998;2022-09-30T05:17:39;100232.31;;;7.79;100.00
3142;BME280;1581;51.568;6.998;2022-09-30T05:20:08;100230.75;;;7.84;100.00
3142;BME280;1581;51.568;6.998;2022-09-30T05:22:37;100230.00;;;7.90;100.00
3142;BME280;1581;51.568;6.998;2022-09-30T05:25:05;100229.19;;;7.90;100.00
3142;BME280;1581;51.568;6.998;2022-09-30T05:27:33;100248.75;;;7.89;100.00
3142;BME280;1581;51.568;6.998;2022-09-30T05:30:01;100247.75;;;7.75;100.00
3142;BME280;1581;51.568;6.998;2022-09-30T05:32:30;100266.97;;;7.77;100.00
3142;BME280;1581;51.568;6.998;2022-09-30T05:34:58;100253.53;;;7.79;100.00
3142;BME280;1581;51.568;6.998;2022-09-30T05:37:28;100261.38;;;7.72;100.00
3142;BME280;1581;51.568;6.998;2022-09-30T05:39:56;100261.03;;;7.75;100.00
3142;BME280;1581;51.568;6.998;2022-09-30T05:42:24;100274.00;;;7.85;100.00
3142;BME280;1581;51.568;6.998;2022-09-30T05:44:55;100283.50;;;7.94;100.00
3142;BME280;1581;51.568;6.998;2022-09-30T05:47:22;100277.75;;;7.90;100.00
3142;BME280;1581;51.568;6.998;2022-09-30T05:49:51;100271.09;;;7.94;100.00
3142;BME280;1581;51.568;6.998;2022-09-30T05:52:19;100278.13;;;8.02;100.00
3142;BME280;1581;51.568;6.998;2022-09-30T05:54:47;100275.47;;;8.02;100.00
3142;BME280;1581;51.568;6.998;2022-09-30T05:57:15;100278.50;;;7.99;100.00
3142;BME280;1581;51.568;6.998;2022-09-30T05:59:43;100280.94;;;8.00;100.00
3142;BME280;1581;51.568;6.998;2022-09-30T06:02:11;100286.25;;;8.00;100.00
3142;BME280;1581;51.568;6.998;2022-09-30T06:04:39;100285.25;;;8.01;100.00
3142;BME280;1581;51.568;6.998;2022-09-30T06:07:08;100288.84;;;8.08;100.00
3142;BME280;1581;51.568;6.998;2022-09-30T06:09:35;100300.25;;;8.09;100.00
3142;BME280;1581;51.568;6.998;2022-09-30T06:12:03;100292.84;;;8.04;100.00
3142;BME280;1581;51.568;6.998;2022-09-30T06:14:31;100288.28;;;8.13;100.00
3142;BME280;1581;51.568;6.998;2022-09-30T06:16:59;100295.72;;;8.17;100.00
3142;BME280;1581;51.568;6.998;2022-09-30T06:19:26;100286.94;;;8.17;100.00
3142;BME280;1581;51.568;6.998;2022-09-30T06:21:55;100294.50;;;8.34;100.00
3142;BME280;1581;51.568;6.998;2022-09-30T06:24:24;100293.75;;;8.40;100.00
3142;BME280;1581;51.568;6.998;2022-09-30T06:26:52;100299.03;;;8.54;100.00
3142;BME280;1581;51.568;6.998;2022-09-30T06:29:20;100304.81;;;8.72;100.00
3142;BME280;1581;51.568;6.998;2022-09-30T06:31:47;100309.16;;;8.80;100.00
3142;BME280;1581;51.568;6.998;2022-09-30T06:34:15;100316.72;;;8.97;100.00
3142;BME280;1581;51.568;6.998;2022-09-30T06:36:42;100323.91;;;8.82;100.00
3142;BME280;1581;51.568;6.998;2022-09-30T06:39:10;100324.44;;;8.92;100.00
3142;BME280;1581;51.568;6.998;2022-09-30T06:41:39;100327.03;;;8.86;100.00
3142;BME280;1581;51.568;6.998;2022-09-30T06:44:08;100331.59;;;9.13;100.00
3142;BME280;1581;51.568;6.998;2022-09-30T06:46:36;100333.75;;;9.24;100.00
3142;BME280;1581;51.568;6.998;2022-09-30T06:49:04;100339.88;;;9.24;100.00
3142;BME280;1581;51.568;6.998;2022-09-30T06:51:32;100333.69;;;9.17;100.00
3142;BME280;1581;51.568;6.998;2022-09-30T06:54:01;100338.50;;;9.28;100.00
3142;BME280;1581;51.568;6.998;2022-09-30T06:56:28;100347.19;;;9.37;100.00
3142;BME280;1581;51.568;6.998;2022-09-30T06:58:58;100343.69;;;9.36;100.00
3142;BME280;1581;51.568;6.998;2022-09-30T07:01:26;100343.31;;;9.60;100.00
3142;BME280;1581;51.568;6.998;2022-09-30T07:03:54;100351.50;;;9.65;100.00
3142;BME280;1581;51.568;6.998;2022-09-30T07:06:24;100345.03;;;9.74;100.00
3142;BME280;1581;51.568;6.998;2022-09-30T07:08:52;100345.81;;;9.68;100.00
3142;BME280;1581;51.568;6.998;2022-09-30T07:11:21;100346.56;;;9.83;100.00
3142;BME280;1581;51.568;6.998;2022-09-30T07:13:49;100350.91;;;9.90;100.00
3142;BME280;1581;51.568;6.998;2022-09-30T07:16:19;100349.25;;;9.89;100.00
3142;BME280;1581;51.568;6.998;2022-09-30T07:18:47;100350.84;;;9.84;100.00
3142;BME280;1581;51.568;6.998;2022-09-30T07:21:15;100347.28;;;9.98;100.00
3142;BME280;1581;51.568;6.998;2022-09-30T07:23:43;100349.66;;;10.14;100.00
3142;BME280;1581;51.568;6.998;2022-09-30T07:26:13;100355.41;;;10.11;100.00
3142;BME280;1581;51.568;6.998;2022-09-30T07:28:42;100356.47;;;10.16;100.00
3142;BME280;1581;51.568;6.998;2022-09-30T07:31:13;100353.09;;;10.35;100.00
3142;BME280;1581;51.568;6.998;2022-09-30T07:33:44;100347.72;;;10.28;100.00
3142;BME280;1581;51.568;6.998;2022-09-30T07:36:14;100351.91;;;10.44;100.00
3142;BME280;1581;51.568;6.998;2022-09-30T07:38:45;100363.56;;;10.43;100.00
3142;BME280;1581;51.568;6.998;2022-09-30T07:41:17;100360.94;;;10.49;100.00
3142;BME280;1581;51.568;6.998;2022-09-30T07:43:45;100361.97;;;10.48;100.00
3142;BME280;1581;51.568;6.998;2022-09-30T07:46:16;100365.94;;;10.65;100.00
3142;BME280;1581;51.568;6.998;2022-09-30T07:48:47;100355.09;;;10.73;100.00
3142;BME280;1581;51.568;6.998;2022-09-30T07:51:20;100356.97;;;10.73;100.00
3142;BME280;1581;51.568;6.998;2022-09-30T07:53:51;100361.09;;;10.82;100.00
3142;BME280;1581;51.568;6.998;2022-09-30T07:56:20;100363.78;;;10.88;100.00
3142;BME280;1581;51.568;6.998;2022-09-30T07:58:48;100365.84;;;10.93;100.00
3142;BME280;1581;51.568;6.998;2022-09-30T08:01:19;100368.53;;;10.99;100.00
3142;BME280;1581;51.568;6.998;2022-09-30T08:03:52;100373.47;;;11.09;100.00
3142;BME280;1581;51.568;6.998;2022-09-30T08:06:36;100373.72;;;11.13;100.00
3142;BME280;1581;51.568;6.998;2022-09-30T08:09:04;100371.28;;;11.25;100.00
3142;BME280;1581;51.568;6.998;2022-09-30T08:11:33;100364.09;;;11.19;100.00
3142;BME280;1581;51.568;6.998;2022-09-30T08:14:03;100372.56;;;11.35;100.00
3142;BME280;1581;51.568;6.998;2022-09-30T08:16:31;100369.66;;;11.30;100.00
3142;BME280;1581;51.568;6.998;2022-09-30T08:19:01;100367.44;;;11.47;100.00
3142;BME280;1581;51.568;6.998;2022-09-30T08:21:29;100373.44;;;11.55;100.00
3142;BME280;1581;51.568;6.998;2022-09-30T08:23:57;100385.31;;;11.59;100.00
3142;BME280;1581;51.568;6.998;2022-09-30T08:26:24;100382.06;;;11.57;100.00
3142;BME280;1581;51.568;6.998;2022-09-30T08:28:55;100384.53;;;11.72;100.00
3142;BME280;1581;51.568;6.998;2022-09-30T08:31:26;100379.63;;;11.82;100.00
3142;BME280;1581;51.568;6.998;2022-09-30T08:33:55;100365.84;;;11.85;100.00
3142;BME280;1581;51.568;6.998;2022-09-30T08:36:26;100366.69;;;11.92;100.00
3142;BME280;1581;51.568;6.998;2022-09-30T08:38:57;100372.44;;;11.95;100.00
3142;BME280;1581;51.568;6.998;2022-09-30T08:42:09;100373.22;;;11.96;100.00
3142;BME280;1581;51.568;6.998;2022-09-30T08:44:44;100369.75;;;12.02;100.00
3142;BME280;1581;51.568;6.998;2022-09-30T08:47:36;100372.00;;;12.04;100.00
3142;BME280;1581;51.568;6.998;2022-09-30T08:50:17;100374.66;;;12.17;100.00
3142;BME280;1581;51.568;6.998;2022-09-30T08:52:54;100375.50;;;12.11;100.00
3142;BME280;1581;51.568;6.998;2022-09-30T08:55:39;100377.72;;;12.27;100.00
3142;BME280;1581;51.568;6.998;2022-09-30T08:58:22;100377.09;;;12.38;100.00
3142;BME280;1581;51.568;6.998;2022-09-30T09:00:57;100383.47;;;12.37;100.00
3142;BME280;1581;51.568;6.998;2022-09-30T09:03:28;100386.91;;;12.51;100.00
3142;BME280;1581;51.568;6.998;2022-09-30T09:06:13;100384.44;;;12.62;100.00
3142;BME280;1581;51.568;6.998;2022-09-30T09:09:26;100383.97;;;12.72;100.00
3142;BME280;1581;51.568;6.998;2022-09-30T09:12:16;100376.97;;;12.84;100.00
3142;BME280;1581;51.568;6.998;2022-09-30T09:15:19;100384.34;;;12.88;100.00
3142;BME280;1581;51.568;6.998;2022-09-30T09:18:12;100382.47;;;12.95;100.00
3142;BME280;1581;51.568;6.998;2022-09-30T09:20:53;100382.69;;;13.00;100.00
3142;BME280;1581;51.568;6.998;2022-09-30T09:23:26;100382.31;;;12.90;100.00
3142;BME280;1581;51.568;6.998;2022-09-30T09:25:58;100374.81;;;13.05;100.00
3142;BME280;1581;51.568;6.998;2022-09-30T09:28:33;100385.47;;;13.18;100.00
3142;BME280;1581;51.568;6.998;2022-09-30T09:31:03;100376.09;;;13.40;100.00
3142;BME280;1581;51.568;6.998;2022-09-30T09:33:34;100378.31;;;13.43;100.00
3142;BME280;1581;51.568;6.998;2022-09-30T09:36:24;100381.75;;;13.56;100.00
3142;BME280;1581;51.568;6.998;2022-09-30T09:39:08;100382.63;;;13.74;100.00
3142;BME280;1581;51.568;6.998;2022-09-30T09:41:48;100383.00;;;13.78;100.00
3142;BME280;1581;51.568;6.998;2022-09-30T09:44:25;100393.53;;;13.79;100.00
3142;BME280;1581;51.568;6.998;2022-09-30T09:47:00;100395.88;;;13.94;100.00
3142;BME280;1581;51.568;6.998;2022-09-30T09:49:33;100386.19;;;13.93;100.00
3142;BME280;1581;51.568;6.998;2022-09-30T09:52:48;100399.59;;;13.93;100.00
3142;BME280;1581;51.568;6.998;2022-09-30T09:55:23;100396.28;;;14.22;100.00
3142;BME280;1581;51.568;6.998;2022-09-30T09:58:06;100389.53;;;14.37;100.00
3142;BME280;1581;51.568;6.998;2022-09-30T10:00:35;100393.13;;;14.49;100.00
3142;BME280;1581;51.568;6.998;2022-09-30T10:03:22;100393.56;;;14.64;100.00
3142;BME280;1581;51.568;6.998;2022-09-30T10:06:06;100407.03;;;14.58;100.00
3142;BME280;1581;51.568;6.998;2022-09-30T10:08:36;100391.38;;;14.61;100.00
3142;BME280;1581;51.568;6.998;2022-09-30T10:11:06;100380.31;;;14.87;100.00
3142;BME280;1581;51.568;6.998;2022-09-30T10:13:45;100384.63;;;15.06;100.00
3142;BME280;1581;51.568;6.998;2022-09-30T10:16:29;100385.06;;;15.21;100.00
3142;BME280;1581;51.568;6.998;2022-09-30T10:18:58;100383.25;;;15.33;100.00
3142;BME280;1581;51.568;6.998;2022-09-30T10:21:28;100383.72;;;15.12;100.00
3142;BME280;1581;51.568;6.998;2022-09-30T10:23:56;100382.53;;;15.26;100.00
3142;BME280;1581;51.568;6.998;2022-09-30T10:26:26;100380.97;;;15.48;100.00
3142;BME280;1581;51.568;6.998;2022-09-30T10:28:59;100383.00;;;15.63;100.00
3142;BME280;1581;51.568;6.998;2022-09-30T10:31:31;100389.13;;;15.70;100.00
3142;BME280;1581;51.568;6.998;2022-09-30T10:34:09;100388.28;;;15.70;100.00
3142;BME280;1581;51.568;6.998;2022-09-30T10:36:41;100381.16;;;15.75;100.00
3142;BME280;1581;51.568;6.998;2022-09-30T10:39:22;100384.59;;;15.94;100.00
3142;BME280;1581;51.568;6.998;2022-09-30T10:41:59;100378.44;;;16.05;100.00
3142;BME280;1581;51.568;6.998;2022-09-30T10:44:30;100390.00;;;16.17;98.49
3142;BME280;1581;51.568;6.998;2022-09-30T10:47:00;100392.56;;;16.12;97.45
3142;BME280;1581;51.568;6.998;2022-09-30T10:49:40;100388.34;;;16.04;96.37
3142;BME280;1581;51.568;6.998;2022-09-30T10:52:18;100385.56;;;16.11;97.19
3142;BME280;1581;51.568;6.998;2022-09-30T10:54:49;100376.09;;;16.08;96.37
3142;BME280;1581;51.568;6.998;2022-09-30T10:57:22;100388.72;;;16.19;96.35
3142;BME280;1581;51.568;6.998;2022-09-30T10:59:56;100384.88;;;16.49;95.85
3142;BME280;1581;51.568;6.998;2022-09-30T11:02:32;100387.78;;;16.71;92.96
3142;BME280;1581;51.568;6.998;2022-09-30T11:05:11;100393.13;;;16.94;92.37
3142;BME280;1581;51.568;6.998;2022-09-30T11:07:48;100396.72;;;16.99;92.60
3142;BME280;1581;51.568;6.998;2022-09-30T11:10:34;100393.19;;;16.48;90.10
3142;BME280;1581;51.568;6.998;2022-09-30T11:13:09;100405.19;;;16.23;92.50
3142;BME280;1581;51.568;6.998;2022-09-30T11:15:56;100407.06;;;15.99;92.45
3142;BME280;1581;51.568;6.998;2022-09-30T11:18:34;100416.53;;;16.13;94.06
3142;BME280;1581;51.568;6.998;2022-09-30T11:21:11;100417.16;;;16.61;93.20
3142;BME280;1581;51.568;6.998;2022-09-30T11:23:44;100402.88;;;16.72;90.10
3142;BME280;1581;51.568;6.998;2022-09-30T11:26:22;100409.00;;;17.07;90.04
3142;BME280;1581;51.568;6.998;2022-09-30T11:29:55;100404.16;;;16.81;88.28
3142;BME280;1581;51.568;6.998;2022-09-30T11:32:55;100411.91;;;17.17;88.23
3142;BME280;1581;51.568;6.998;2022-09-30T11:35:43;100405.56;;;17.34;86.87
3142;BME280;1581;51.568;6.998;2022-09-30T11:38:38;100397.00;;;17.65;86.04
3142;BME280;1581;51.568;6.998;2022-09-30T11:41:15;100402.47;;;17.86;85.42
3142;BME280;1581;51.568;6.998;2022-09-30T11:43:57;100401.06;;;17.67;83.43
3142;BME280;1581;51.568;6.998;2022-09-30T11:46:45;100399.97;;;17.96;85.35
3142;BME280;1581;51.568;6.998;2022-09-30T11:49:44;100393.41;;;17.76;85.39
3142;BME280;1581;51.568;6.998;2022-09-30T11:52:22;100405.03;;;17.93;84.07
3142;BME280;1581;51.568;6.998;2022-09-30T11:55:14;100400.78;;;18.46;81.90
3142;BME280;1581;51.568;6.998;2022-09-30T11:57:53;100395.28;;;18.57;80.51
3142;BME280;1581;51.568;6.998;2022-09-30T12:00:28;100397.75;;;18.59;80.06
3142;BME280;1581;51.568;6.998;2022-09-30T12:03:03;100384.19;;;18.37;79.14
3142;BME280;1581;51.568;6.998;2022-09-30T12:05:38;100387.25;;;18.24;79.74
3142;BME280;1581;51.568;6.998;2022-09-30T12:08:14;100377.34;;;18.30;79.49
3142;BME280;1581;51.568;6.998;2022-09-30T12:10:47;100377.00;;;18.43;80.05
3142;BME280;1581;51.568;6.998;2022-09-30T12:13:22;100370.63;;;18.49;79.81
3142;BME280;1581;51.568;6.998;2022-09-30T12:16:01;100375.28;;;18.53;78.87
3142;BME280;1581;51.568;6.998;2022-09-30T12:18:36;100376.00;;;18.49;79.56
3142;BME280;1581;51.568;6.998;2022-09-30T12:21:18;100381.25;;;18.55;78.63
3142;BME280;1581;51.568;6.998;2022-09-30T12:23:55;100372.75;;;18.30;77.28
3142;BME280;1581;51.568;6.998;2022-09-30T12:26:26;100362.78;;;18.14;75.72
3142;BME280;1581;51.568;6.998;2022-09-30T12:28:55;100367.28;;;17.93;78.48
3142;BME280;1581;51.568;6.998;2022-09-30T12:32:01;100361.00;;;18.20;77.95
3142;BME280;1581;51.568;6.998;2022-09-30T12:34:51;100353.63;;;18.32;79.66
3142;BME280;1581;51.568;6.998;2022-09-30T12:37:50;100348.97;;;18.11;77.67
3142;BME280;1581;51.568;6.998;2022-09-30T12:40:51;100349.03;;;18.16;78.01
3142;BME280;1581;51.568;6.998;2022-09-30T12:43:56;100347.50;;;17.71;77.15
3142;BME280;1581;51.568;6.998;2022-09-30T12:46:51;100342.75;;;17.94;75.23
3142;BME280;1581;51.568;6.998;2022-09-30T12:49:27;100350.94;;;17.99;74.58
3142;BME280;1581;51.568;6.998;2022-09-30T12:51:59;100348.56;;;18.03;76.07
3142;BME280;1581;51.568;6.998;2022-09-30T12:54:34;100338.53;;;17.98;77.27
3142;BME280;1581;51.568;6.998;2022-09-30T12:57:05;100336.31;;;18.28;77.61
3142;BME280;1581;51.568;6.998;2022-09-30T12:59:37;100338.66;;;18.41;77.79
3142;BME280;1581;51.568;6.998;2022-09-30T13:02:20;100338.88;;;18.56;75.66
3142;BME280;1581;51.568;6.998;2022-09-30T13:04:53;100338.50;;;18.69;74.90
3142;BME280;1581;51.568;6.998;2022-09-30T13:07:22;100330.91;;;18.66;74.51
3142;BME280;1581;51.568;6.998;2022-09-30T13:10:27;100322.66;;;18.77;74.28
3142;BME280;1581;51.568;6.998;2022-09-30T13:13:22;100327.50;;;18.97;76.72
3142;BME280;1581;51.568;6.998;2022-09-30T13:15:50;100330.34;;;18.85;74.33
3142;BME280;1581;51.568;6.998;2022-09-30T13:18:59;100338.53;;;19.11;74.33
3142;BME280;1581;51.568;6.998;2022-09-30T13:21:29;100344.66;;;19.28;74.16
3142;BME280;1581;51.568;6.998;2022-09-30T13:23:57;100338.56;;;18.95;71.33
3142;BME280;1581;51.568;6.998;2022-09-30T13:26:44;100318.47;;;18.65;70.64
3142;BME280;1581;51.568;6.998;2022-09-30T13:29:36;100317.94;;;19.32;69.62
3142;BME280;1581;51.568;6.998;2022-09-30T13:32:11;100314.72;;;19.61;69.86
3142;BME280;1581;51.568;6.998;2022-09-30T13:34:56;100329.22;;;19.87;69.13
3142;BME280;1581;51.568;6.998;2022-09-30T13:37:38;100325.25;;;19.63;67.04
3142;BME280;1581;51.568;6.998;2022-09-30T13:40:20;100311.88;;;20.14;65.68
3142;BME280;1581;51.568;6.998;2022-09-30T13:42:55;100320.53;;;20.57;63.71
3142;BME280;1581;51.568;6.998;2022-09-30T13:45:30;100324.47;;;19.67;65.15
3142;BME280;1581;51.568;6.998;2022-09-30T13:48:09;100317.00;;;19.48;67.27
3142;BME280;1581;51.568;6.998;2022-09-30T13:50:44;100307.34;;;19.88;67.73
3142;BME280;1581;51.568;6.998;2022-09-30T13:53:25;100314.59;;;20.14;68.56
3142;BME280;1581;51.568;6.998;2022-09-30T13:55:59;100307.88;;;21.54;62.26